createdAt,value
2023-05-20T00:01:03.385Z,4.45
2023-05-20T00:03:34.163Z,3.90
2023-05-20T00:06:02.078Z,3.60
2023-05-20T00:08:29.982Z,4.63
2023-05-20T00:10:57.983Z,3.30
2023-05-20T00:13:26.601Z,4.65
2023-05-20T00:15:54.625Z,3.60
2023-05-20T00:18:24.596Z,4.13
2023-05-20T00:20:54.474Z,4.28
2023-05-20T00:23:22.565Z,4.15
2023-05-20T00:25:50.831Z,3.65
2023-05-20T00:28:19.737Z,3.85
2023-05-20T00:30:47.644Z,3.90
2023-05-20T00:33:15.424Z,3.95
2023-05-20T00:35:43.562Z,3.25
2023-05-20T00:38:12.832Z,4.25
2023-05-20T00:40:40.866Z,4.45
2023-05-20T00:43:10.513Z,3.83
2023-05-20T00:45:38.951Z,3.55
2023-05-20T00:48:08.315Z,3.65
2023-05-20T00:50:36.662Z,4.18
2023-05-20T00:53:05.845Z,4.45
2023-05-20T00:55:36.090Z,4.38
2023-05-20T00:58:05.302Z,4.20
2023-05-20T01:00:33.369Z,4.43
2023-05-20T01:03:01.824Z,5.93
2023-05-20T01:05:30.168Z,4.28
2023-05-20T01:07:59.156Z,4.53
2023-05-20T01:10:30.342Z,4.80
2023-05-20T01:13:02.856Z,4.50
2023-05-20T01:15:32.284Z,3.97
2023-05-20T01:18:06.004Z,3.78
2023-05-20T01:20:34.790Z,4.03
2023-05-20T01:23:04.489Z,4.47
2023-05-20T01:25:32.531Z,5.50
2023-05-20T01:28:00.658Z,4.95
2023-05-20T01:30:33.734Z,5.47
2023-05-20T01:33:07.214Z,4.90
2023-05-20T01:35:37.164Z,5.05
2023-05-20T01:38:08.121Z,6.30
2023-05-20T01:40:36.929Z,5.25
2023-05-20T01:43:05.558Z,4.43
2023-05-20T01:45:34.318Z,4.80
2023-05-20T01:48:03.321Z,5.28
2023-05-20T01:50:31.208Z,4.90
2023-05-20T01:52:59.188Z,5.72
2023-05-20T01:55:28.783Z,6.03
2023-05-20T01:57:56.688Z,5.68
2023-05-20T02:00:24.537Z,5.15
2023-05-20T02:02:52.825Z,4.95
2023-05-20T02:05:20.846Z,5.40
2023-05-20T02:07:48.864Z,6.13
2023-05-20T02:10:17.121Z,6.15
2023-05-20T02:12:47.727Z,5.80
2023-05-20T02:15:15.913Z,5.60
2023-05-20T02:17:44.348Z,5.63
2023-05-20T02:20:13.892Z,4.65
2023-05-20T02:22:42.086Z,4.30
2023-05-20T02:25:11.802Z,5.25
2023-05-20T02:27:40.627Z,5.00
2023-05-20T02:30:10.759Z,5.20
2023-05-20T02:32:38.784Z,4.20
2023-05-20T02:35:07.466Z,3.83
2023-05-20T02:37:35.505Z,3.88
2023-05-20T02:40:03.808Z,3.70
2023-05-20T02:42:31.937Z,3.00
2023-05-20T02:45:00.172Z,3.92
2023-05-20T02:47:29.620Z,3.70
2023-05-20T02:49:57.634Z,3.50
2023-05-20T02:52:26.193Z,4.20
2023-05-20T02:54:54.592Z,3.33
2023-05-20T02:57:22.820Z,3.28
2023-05-20T02:59:53.224Z,4.05
2023-05-20T03:02:25.606Z,3.42
2023-05-20T03:04:55.025Z,3.17
2023-05-20T03:07:23.064Z,2.83
2023-05-20T03:09:51.205Z,3.38
2023-05-20T03:12:19.437Z,3.63
2023-05-20T03:14:47.630Z,3.75
2023-05-20T03:17:15.574Z,3.95
2023-05-20T03:19:43.906Z,3.95
2023-05-20T03:22:13.536Z,3.30
2023-05-20T03:24:43.002Z,4.43
2023-05-20T03:27:14.224Z,3.55
2023-05-20T03:29:42.494Z,3.80
2023-05-20T03:32:11.045Z,3.65
2023-05-20T03:34:39.338Z,3.60
2023-05-20T03:37:07.751Z,3.70
2023-05-20T03:39:37.251Z,3.92
2023-05-20T03:42:06.154Z,3.55
2023-05-20T03:44:34.367Z,4.05
2023-05-20T03:47:03.699Z,3.50
2023-05-20T03:49:32.774Z,4.22
2023-05-20T03:52:01.481Z,4.07
2023-05-20T03:54:31.437Z,3.45
2023-05-20T03:57:02.912Z,3.92
2023-05-20T03:59:30.893Z,5.05
2023-05-20T04:01:59.012Z,4.20
2023-05-20T04:04:27.106Z,4.47
2023-05-20T04:06:56.162Z,3.55
2023-05-20T04:09:25.086Z,3.92
2023-05-20T04:11:53.199Z,3.72
2023-05-20T04:14:22.385Z,4.07
2023-05-20T04:16:51.647Z,4.80
2023-05-20T04:19:20.318Z,3.83
2023-05-20T04:21:50.518Z,4.20
2023-05-20T04:24:18.827Z,3.45
2023-05-20T04:26:48.195Z,3.88
2023-05-20T04:29:16.201Z,3.78
2023-05-20T04:31:45.737Z,3.65
2023-05-20T04:34:14.979Z,3.78
2023-05-20T04:36:43.557Z,3.85
2023-05-20T04:39:12.620Z,4.25
2023-05-20T04:41:42.207Z,3.17
2023-05-20T04:44:10.066Z,4.28
2023-05-20T04:46:38.132Z,4.22
2023-05-20T04:49:07.544Z,3.38
2023-05-20T04:51:35.869Z,4.13
2023-05-20T04:54:03.997Z,3.90
2023-05-20T04:56:33.407Z,3.97
2023-05-20T04:59:01.871Z,4.75
2023-05-20T05:01:30.087Z,3.13
2023-05-20T05:03:58.861Z,4.15
2023-05-20T05:06:28.386Z,3.65
2023-05-20T05:08:56.412Z,4.18
2023-05-20T05:11:24.458Z,3.17
2023-05-20T05:13:52.605Z,3.05
2023-05-20T05:16:24.228Z,3.70
2023-05-20T05:18:52.418Z,3.33
2023-05-20T05:21:20.637Z,3.20
2023-05-20T05:23:50.868Z,3.75
2023-05-20T05:26:18.887Z,3.60
2023-05-20T05:28:47.012Z,3.75
2023-05-20T05:31:15.182Z,3.75
2023-05-20T05:33:43.172Z,3.35
2023-05-20T05:36:11.240Z,4.00
2023-05-20T05:38:39.310Z,3.83
2023-05-20T05:41:09.495Z,3.90
2023-05-20T05:43:38.423Z,3.60
2023-05-20T05:46:08.157Z,3.38
2023-05-20T05:48:37.008Z,3.10
2023-05-20T05:51:05.919Z,3.10
2023-05-20T05:53:35.443Z,3.17
2023-05-20T05:56:07.240Z,3.00
2023-05-20T05:58:37.033Z,3.23
2023-05-20T06:01:07.276Z,3.47
2023-05-20T06:03:35.472Z,3.03
2023-05-20T06:06:03.670Z,3.10
2023-05-20T06:08:31.816Z,2.87
2023-05-20T06:11:00.454Z,3.40
2023-05-20T06:13:28.631Z,2.93
2023-05-20T06:15:59.018Z,3.13
2023-05-20T06:18:29.208Z,3.07
2023-05-20T06:21:01.833Z,3.03
2023-05-20T06:23:29.871Z,2.97
2023-05-20T06:26:01.808Z,2.40
2023-05-20T06:28:31.753Z,3.60
2023-05-20T06:31:01.340Z,2.80
2023-05-20T06:33:33.893Z,3.00
2023-05-20T06:36:07.370Z,3.17
2023-05-20T06:38:35.380Z,3.60
2023-05-20T06:41:04.687Z,2.30
2023-05-20T06:43:34.315Z,3.03
2023-05-20T06:46:24.987Z,3.13
2023-05-20T06:48:58.061Z,3.30
2023-05-20T06:51:27.668Z,3.30
2023-05-20T06:53:58.562Z,2.97
2023-05-20T06:56:26.516Z,3.63
2023-05-20T06:58:56.377Z,3.20
2023-05-20T07:01:25.882Z,2.77
2023-05-20T07:03:54.124Z,3.30
2023-05-20T07:06:22.040Z,3.30
2023-05-20T07:08:50.230Z,3.40
2023-05-20T07:11:18.685Z,3.50
2023-05-20T07:13:46.812Z,3.80
2023-05-20T07:16:14.745Z,3.33
2023-05-20T07:18:48.227Z,3.67
2023-05-20T07:21:16.353Z,3.87
2023-05-20T07:23:56.630Z,4.00
2023-05-20T07:26:24.731Z,3.90
2023-05-20T07:28:52.582Z,3.83
2023-05-20T07:31:20.750Z,3.57
2023-05-20T07:33:50.816Z,3.67
2023-05-20T07:36:19.234Z,3.37
2023-05-20T07:39:01.359Z,3.80
2023-05-20T07:41:33.115Z,4.00
2023-05-20T07:44:03.000Z,4.20
2023-05-20T07:46:30.876Z,3.83
2023-05-20T07:49:00.271Z,3.70
2023-05-20T07:51:28.455Z,3.23
2023-05-20T07:53:56.227Z,3.87
2023-05-20T07:56:24.471Z,4.07
2023-05-20T07:58:54.822Z,3.40
2023-05-20T08:01:24.055Z,3.67
2023-05-20T08:03:52.317Z,3.40
2023-05-20T08:06:26.764Z,3.30
2023-05-20T08:08:56.254Z,3.37
2023-05-20T08:11:29.831Z,2.90
2023-05-20T08:13:58.467Z,3.27
2023-05-20T08:16:29.422Z,3.60
2023-05-20T08:18:57.832Z,3.73
2023-05-20T08:21:27.447Z,3.60
2023-05-20T08:23:55.706Z,3.40
2023-05-20T08:26:23.659Z,3.90
2023-05-20T08:28:52.407Z,3.50
2023-05-20T08:31:20.864Z,3.37
2023-05-20T08:33:49.007Z,3.87
2023-05-20T08:36:17.020Z,3.77
2023-05-20T08:38:46.454Z,3.17
2023-05-20T08:41:14.290Z,3.87
2023-05-20T08:43:45.421Z,4.13
2023-05-20T08:46:15.166Z,4.37
2023-05-20T08:48:45.005Z,3.90
2023-05-20T08:51:14.193Z,3.80
2023-05-20T08:53:42.244Z,3.30
2023-05-20T08:56:13.932Z,4.10
2023-05-20T08:58:42.974Z,3.77
2023-05-20T09:01:11.196Z,3.40
2023-05-20T09:03:39.297Z,3.67
2023-05-20T09:06:08.987Z,3.23
2023-05-20T09:08:37.426Z,3.50
2023-05-20T09:11:05.458Z,3.23
2023-05-20T09:13:34.837Z,3.77
2023-05-20T09:16:03.955Z,3.10
2023-05-20T09:18:31.970Z,3.80
2023-05-20T09:21:05.654Z,4.10
2023-05-20T09:23:33.894Z,3.97
2023-05-20T09:26:03.224Z,3.30
2023-05-20T09:28:31.187Z,3.90
2023-05-20T09:31:02.411Z,3.83
2023-05-20T09:33:31.779Z,4.20
2023-05-20T09:36:09.624Z,3.43
2023-05-20T09:38:39.458Z,3.53
2023-05-20T09:41:09.637Z,4.80
2023-05-20T09:43:37.778Z,3.93
2023-05-20T09:46:08.172Z,2.73
2023-05-20T09:48:37.350Z,3.00
2023-05-20T09:51:06.889Z,3.40
2023-05-20T09:53:35.037Z,3.37
2023-05-20T09:56:04.343Z,3.50
2023-05-20T09:58:34.640Z,3.80
2023-05-20T10:01:03.310Z,3.10
2023-05-20T10:03:34.140Z,2.77
2023-05-20T10:06:20.258Z,3.50
2023-05-20T10:09:03.454Z,3.13
2023-05-20T10:11:40.257Z,3.90
2023-05-20T10:14:26.019Z,3.50
2023-05-20T10:17:01.911Z,3.97
2023-05-20T10:19:33.750Z,3.67
2023-05-20T10:22:03.441Z,3.83
2023-05-20T10:24:33.184Z,3.27
2023-05-20T10:27:03.469Z,2.97
2023-05-20T10:29:31.619Z,3.30
2023-05-20T10:31:59.544Z,3.30
2023-05-20T10:34:27.572Z,3.33
2023-05-20T10:37:01.660Z,3.53
2023-05-20T10:39:33.011Z,3.80
2023-05-20T10:42:09.118Z,3.60
2023-05-20T10:44:45.142Z,3.87
2023-05-20T10:49:47.747Z,3.43
2023-05-20T10:52:18.621Z,3.63
2023-05-20T10:54:50.189Z,3.67
2023-05-20T10:57:20.161Z,3.90
2023-05-20T10:59:49.507Z,4.20
2023-05-20T11:02:19.097Z,3.27
2023-05-20T11:04:47.841Z,3.80
2023-05-20T11:07:28.344Z,3.77
2023-05-20T11:09:56.786Z,3.37
2023-05-20T11:12:26.013Z,3.10
2023-05-20T11:14:54.925Z,3.13
2023-05-20T11:17:23.370Z,3.13
2023-05-20T11:19:52.011Z,2.80
2023-05-20T11:22:19.902Z,3.50
2023-05-20T11:24:49.163Z,3.33
2023-05-20T11:27:17.130Z,4.03
2023-05-20T11:29:45.613Z,3.20
2023-05-20T11:32:15.063Z,4.20
2023-05-20T11:34:43.443Z,4.37
2023-05-20T11:37:12.621Z,3.93
2023-05-20T11:39:40.841Z,3.93
2023-05-20T11:42:10.375Z,4.43
2023-05-20T11:44:38.461Z,3.97
2023-05-20T11:47:06.634Z,3.57
2023-05-20T11:49:41.407Z,4.37
2023-05-20T11:52:11.216Z,5.03
2023-05-20T11:54:39.585Z,3.90
2023-05-20T11:57:12.590Z,4.27
2023-05-20T11:59:40.682Z,4.57
2023-05-20T12:02:08.711Z,4.53
2023-05-20T12:04:36.961Z,4.40
2023-05-20T12:07:11.240Z,4.10
2023-05-20T12:09:39.856Z,4.07
2023-05-20T12:12:11.243Z,4.40
2023-05-20T12:14:39.280Z,3.80
2023-05-20T12:17:07.129Z,4.33
2023-05-20T12:19:37.366Z,3.90
2023-05-20T12:22:07.215Z,3.50
2023-05-20T12:24:35.410Z,3.73
2023-05-20T12:27:04.092Z,3.93
2023-05-20T12:29:35.771Z,3.83
2023-05-20T12:32:04.094Z,4.67
2023-05-20T12:34:33.350Z,3.97
2023-05-20T12:37:01.516Z,3.83
2023-05-20T12:39:29.567Z,4.10
2023-05-20T12:41:57.660Z,4.67
2023-05-20T12:44:25.900Z,4.67
2023-05-20T12:46:56.322Z,4.57
2023-05-20T12:49:24.468Z,3.73
2023-05-20T12:51:52.411Z,5.23
2023-05-20T12:54:21.735Z,4.70
2023-05-20T12:56:49.893Z,5.20
2023-05-20T12:59:18.059Z,4.57
2023-05-20T13:01:46.111Z,5.33
2023-05-20T13:04:15.384Z,4.27
2023-05-20T13:06:43.689Z,4.87
2023-05-20T13:09:11.449Z,5.20
2023-05-20T13:11:39.182Z,5.00
2023-05-20T13:14:07.359Z,4.63
2023-05-20T13:16:35.293Z,4.63
2023-05-20T13:19:03.159Z,5.17
2023-05-20T13:21:34.141Z,5.53
2023-05-20T13:24:04.491Z,5.03
2023-05-20T13:26:33.359Z,4.73
2023-05-20T13:29:01.492Z,5.10
2023-05-20T13:31:29.651Z,5.20
2023-05-20T13:34:00.396Z,5.90
2023-05-20T13:36:28.658Z,5.80
2023-05-20T13:38:57.715Z,4.97
2023-05-20T13:41:26.445Z,5.07
2023-05-20T13:43:54.534Z,6.00
2023-05-20T13:46:22.408Z,4.97
2023-05-20T13:48:50.275Z,5.43
2023-05-20T13:51:18.328Z,4.57
2023-05-20T13:53:46.109Z,5.10
2023-05-20T13:56:16.500Z,5.10
2023-05-20T13:58:44.701Z,4.63
2023-05-20T14:01:13.100Z,4.60
2023-05-20T14:03:42.023Z,4.67
2023-05-20T14:06:10.549Z,6.20
2023-05-20T14:08:39.652Z,4.80
2023-05-20T14:11:07.567Z,4.63
2023-05-20T14:13:38.667Z,4.80
2023-05-20T14:16:08.866Z,5.10
2023-05-20T14:18:37.451Z,5.13
2023-05-20T14:21:06.971Z,4.80
2023-05-20T14:23:35.994Z,4.77
2023-05-20T14:26:04.556Z,5.57
2023-05-20T14:28:33.535Z,5.23
2023-05-20T14:31:06.974Z,5.30
2023-05-20T14:33:40.267Z,4.87
2023-05-20T14:36:09.908Z,5.30
2023-05-20T14:38:38.424Z,4.90
2023-05-20T14:41:07.428Z,4.90
2023-05-20T14:43:36.565Z,5.00
2023-05-20T14:46:07.942Z,4.90
2023-05-20T14:48:37.777Z,5.67
2023-05-20T14:51:07.205Z,5.60
2023-05-20T14:53:34.972Z,5.90
2023-05-20T14:56:03.080Z,5.27
2023-05-20T14:58:31.750Z,5.17
2023-05-20T15:00:59.607Z,5.53
2023-05-20T15:03:29.427Z,5.87
2023-05-20T15:05:57.814Z,5.43
2023-05-20T15:08:25.916Z,5.20
2023-05-20T15:10:56.046Z,5.10
2023-05-20T15:13:24.203Z,6.13
2023-05-20T15:15:52.061Z,5.53
2023-05-20T15:18:19.842Z,4.90
2023-05-20T15:20:49.530Z,5.23
2023-05-20T15:23:18.033Z,5.20
2023-05-20T15:25:49.322Z,5.70
2023-05-20T15:28:19.815Z,5.60
2023-05-20T15:30:52.172Z,5.53
2023-05-20T15:33:19.994Z,5.10
2023-05-20T15:35:49.572Z,5.07
2023-05-20T15:38:17.669Z,5.63
2023-05-20T15:40:45.455Z,5.53
2023-05-20T15:43:13.385Z,5.70
2023-05-20T15:45:41.364Z,5.40
2023-05-20T15:48:09.419Z,5.10
2023-05-20T15:50:37.906Z,5.67
2023-05-20T15:53:09.589Z,6.33
2023-05-20T15:55:37.643Z,5.77
2023-05-20T15:58:07.016Z,5.83
2023-05-20T16:00:35.810Z,5.30
2023-05-20T16:03:03.997Z,6.10
2023-05-20T16:05:32.095Z,5.67
2023-05-20T16:08:00.009Z,7.37
2023-05-20T16:10:32.603Z,5.83
2023-05-20T16:13:00.903Z,5.60
2023-05-20T16:15:32.645Z,6.43
2023-05-20T16:18:01.614Z,5.13
2023-05-20T16:20:30.342Z,5.83
2023-05-20T16:22:58.199Z,6.03
2023-05-20T16:25:26.002Z,5.80
2023-05-20T16:27:57.327Z,6.07
2023-05-20T16:30:26.213Z,6.60
2023-05-20T16:32:54.593Z,5.90
2023-05-20T16:35:23.513Z,6.30
2023-05-20T16:37:51.447Z,6.30
2023-05-20T16:40:21.936Z,6.50
2023-05-20T16:42:51.599Z,6.60
2023-05-20T16:45:20.650Z,6.40
2023-05-20T16:47:49.463Z,6.97
2023-05-20T16:50:17.487Z,5.73
2023-05-20T16:52:45.307Z,6.37
2023-05-20T16:55:13.567Z,6.20
2023-05-20T16:57:43.168Z,5.87
2023-05-20T17:00:11.814Z,6.43
2023-05-20T17:02:41.436Z,6.93
2023-05-20T17:05:10.252Z,6.20
2023-05-20T17:07:39.291Z,7.20
2023-05-20T17:10:09.040Z,6.80
2023-05-20T17:12:37.349Z,6.80
2023-05-20T17:15:06.120Z,6.90
2023-05-20T17:17:36.027Z,6.40
2023-05-20T17:20:06.557Z,7.00
2023-05-20T17:22:36.622Z,6.20
2023-05-20T17:25:05.142Z,7.03
2023-05-20T17:27:33.847Z,6.43
2023-05-20T17:30:01.857Z,6.73
2023-05-20T17:32:30.349Z,7.30
2023-05-20T17:34:58.204Z,6.27
2023-05-20T17:37:27.471Z,6.90
2023-05-20T17:39:55.593Z,7.20
2023-05-20T17:42:23.463Z,6.77
2023-05-20T17:44:51.335Z,5.97
2023-05-20T17:47:20.650Z,7.30
2023-05-20T17:49:48.438Z,6.80
2023-05-20T17:52:16.410Z,7.17
2023-05-20T17:54:45.701Z,7.20
2023-05-20T17:57:13.730Z,7.70
2023-05-20T17:59:42.139Z,7.13
2023-05-20T18:02:10.088Z,6.60
2023-05-20T18:04:37.973Z,7.77
2023-05-20T18:07:06.741Z,7.10
2023-05-20T18:09:34.570Z,6.60
2023-05-20T18:12:03.854Z,6.83
2023-05-20T18:14:34.153Z,7.20
2023-05-20T18:17:06.556Z,7.30
2023-05-20T18:19:34.473Z,8.00
2023-05-20T18:22:02.569Z,6.93
2023-05-20T18:24:30.710Z,6.67
2023-05-20T18:26:59.081Z,6.77
2023-05-20T18:29:29.587Z,7.50
2023-05-20T18:31:59.297Z,8.30
2023-05-20T18:34:28.104Z,7.37
2023-05-20T18:36:56.051Z,7.60
2023-05-20T18:39:24.127Z,8.77
2023-05-20T18:41:52.162Z,8.20
2023-05-20T18:44:20.407Z,9.10
2023-05-20T18:46:49.664Z,8.33
2023-05-20T18:49:17.507Z,8.87
2023-05-20T18:51:45.414Z,9.00
2023-05-20T18:54:13.554Z,8.73
2023-05-20T18:56:42.872Z,8.90
2023-05-20T18:59:10.847Z,8.00
2023-05-20T19:01:41.400Z,10.67
2023-05-20T19:04:12.104Z,9.43
2023-05-20T19:06:42.752Z,8.40
2023-05-20T19:09:12.816Z,8.83
2023-05-20T19:11:41.048Z,8.87
2023-05-20T19:14:09.187Z,9.30
2023-05-20T19:16:36.993Z,9.03
2023-05-20T19:19:05.296Z,8.80
2023-05-20T19:21:34.754Z,9.53
2023-05-20T19:24:04.695Z,8.47
2023-05-20T19:26:34.282Z,9.47
2023-05-20T19:29:04.162Z,9.57
2023-05-20T19:31:34.025Z,10.00
2023-05-20T19:34:03.881Z,8.37
2023-05-20T19:36:32.273Z,9.70
2023-05-20T19:39:04.063Z,10.30
2023-05-20T19:41:32.489Z,9.00
2023-05-20T19:44:01.743Z,10.43
2023-05-20T19:46:33.477Z,8.80
2023-05-20T19:49:03.013Z,10.07
2023-05-20T19:51:30.994Z,10.20
2023-05-20T19:53:58.749Z,9.67
2023-05-20T19:56:28.102Z,9.47
2023-05-20T19:58:57.389Z,9.93
2023-05-20T20:01:25.443Z,10.00
2023-05-20T20:03:54.813Z,10.40
2023-05-20T20:06:25.934Z,9.60
2023-05-20T20:08:55.356Z,11.07
2023-05-20T20:11:24.188Z,9.47
2023-05-20T20:13:53.469Z,11.67
2023-05-20T20:16:21.460Z,10.37
2023-05-20T20:18:49.771Z,10.03
2023-05-20T20:21:18.428Z,10.60
2023-05-20T20:23:50.588Z,9.57
2023-05-20T20:26:18.457Z,9.83
2023-05-20T20:28:46.862Z,10.23
2023-05-20T20:31:16.042Z,10.70
2023-05-20T20:33:45.225Z,11.60
2023-05-20T20:36:13.158Z,10.43
2023-05-20T20:38:46.569Z,10.80
2023-05-20T20:41:16.764Z,11.60
2023-05-20T20:43:45.726Z,11.50
2023-05-20T20:46:14.763Z,11.50
2023-05-20T20:48:45.471Z,9.70
2023-05-20T20:51:14.252Z,11.00
2023-05-20T20:53:42.260Z,11.10
2023-05-20T20:56:10.480Z,12.37
2023-05-20T20:58:39.407Z,10.60
2023-05-20T21:01:07.561Z,13.10
2023-05-20T21:03:36.651Z,11.23
2023-05-20T21:06:05.918Z,12.50
2023-05-20T21:08:34.347Z,11.20
2023-05-20T21:11:02.343Z,11.57
2023-05-20T21:13:31.448Z,12.10
2023-05-20T21:15:59.464Z,11.30
2023-05-20T21:18:27.499Z,12.05
2023-05-20T21:20:56.450Z,14.10
2023-05-20T21:23:25.961Z,12.38
2023-05-20T21:25:54.517Z,13.33
2023-05-20T21:28:22.506Z,12.20
2023-05-20T21:30:50.646Z,13.07
2023-05-20T21:33:18.524Z,13.00
2023-05-20T21:35:46.519Z,13.68
2023-05-20T21:38:15.393Z,13.73
2023-05-20T21:40:44.576Z,12.88
2023-05-20T21:43:14.100Z,14.57
2023-05-20T21:45:42.562Z,12.20
2023-05-20T21:48:11.269Z,13.10
2023-05-20T21:50:40.024Z,12.88
2023-05-20T21:53:07.789Z,13.60
2023-05-20T21:55:36.070Z,14.20
2023-05-20T21:58:05.395Z,12.73
2023-05-20T22:00:33.548Z,13.50
2023-05-20T22:03:01.533Z,12.25
2023-05-20T22:05:29.505Z,13.52
2023-05-20T22:08:00.391Z,12.20
2023-05-20T22:10:28.385Z,12.55
2023-05-20T22:12:58.009Z,13.70
2023-05-20T22:15:27.276Z,13.63
2023-05-20T22:17:55.681Z,15.85
2023-05-20T22:20:24.351Z,13.88
2023-05-20T22:22:52.129Z,14.13
2023-05-20T22:25:20.145Z,15.05
2023-05-20T22:27:48.317Z,15.45
2023-05-20T22:30:16.251Z,14.43
2023-05-20T22:32:45.608Z,14.32
2023-05-20T22:35:14.006Z,15.38
2023-05-20T22:37:41.853Z,14.70
2023-05-20T22:40:10.617Z,15.45
2023-05-20T22:42:38.509Z,15.75
2023-05-20T22:45:07.198Z,15.70
2023-05-20T22:47:35.179Z,15.95
2023-05-20T22:50:05.023Z,17.40
2023-05-20T22:52:33.557Z,16.75
2023-05-20T22:55:01.821Z,15.10
2023-05-20T22:57:29.982Z,16.70
2023-05-20T22:59:57.809Z,17.70
2023-05-20T23:02:26.065Z,16.38
2023-05-20T23:04:54.045Z,17.40
2023-05-20T23:07:23.510Z,18.00
2023-05-20T23:09:51.616Z,17.10
2023-05-20T23:12:19.667Z,17.63
2023-05-20T23:14:47.516Z,15.52
2023-05-20T23:17:16.009Z,16.88
2023-05-20T23:19:44.056Z,17.20
2023-05-20T23:22:12.012Z,17.05
2023-05-20T23:24:41.316Z,17.45
2023-05-20T23:27:09.377Z,15.82
2023-05-20T23:29:37.680Z,16.10
2023-05-20T23:32:06.219Z,17.15
2023-05-20T23:34:34.318Z,15.98
2023-05-20T23:37:02.565Z,15.73
2023-05-20T23:39:30.628Z,15.55
2023-05-20T23:41:59.798Z,14.82
2023-05-20T23:44:27.676Z,15.82
2023-05-20T23:46:55.560Z,18.00
2023-05-20T23:49:26.918Z,16.30
2023-05-20T23:51:54.920Z,16.10
2023-05-20T23:54:23.264Z,16.38
2023-05-20T23:56:51.166Z,15.60
2023-05-20T23:59:20.411Z,16.23
